sensor_id;sensor_type;location;lat;lon;timestamp;pressure;altitude;pressure_sealevel;temperature;humidity
50484;BME280;36409;52.168;20.878;2023-12-20T00:02:10;99659.62;;;5.03;84.03
50484;BME280;36409;52.168;20.878;2023-12-20T00:04:39;99656.19;;;5.02;83.97
50484;BME280;36409;52.168;20.878;2023-12-20T00:07:09;99655.31;;;5.02;84.13
50484;BME280;36409;52.168;20.878;2023-12-20T00:09:40;99644.96;;;5.02;84.14
50484;BME280;36409;52.168;20.878;2023-12-20T00:12:12;99645.84;;;5.02;84.31
50484;BME280;36409;52.168;20.878;2023-12-20T00:14:42;99642.39;;;5.03;83.98
50484;BME280;36409;52.168;20.878;2023-12-20T00:17:11;99638.92;;;5.03;83.89
50484;BME280;36409;52.168;20.878;2023-12-20T00:19:41;99644.12;;;5.04;84.10
50484;BME280;36409;52.168;20.878;2023-12-20T00:22:10;99636.36;;;5.04;84.00
50484;BME280;36409;52.168;20.878;2023-12-20T00:24:42;99640.67;;;5.05;84.28
50484;BME280;36409;52.168;20.878;2023-12-20T00:27:16;99638.94;;;5.04;84.23
50484;BME280;36409;52.168;20.878;2023-12-20T00:29:45;99627.73;;;5.05;84.13
50484;BME280;36409;52.168;20.878;2023-12-20T00:32:29;99625.99;;;5.06;84.33
50484;BME280;36409;52.168;20.878;2023-12-20T00:34:59;99634.63;;;5.06;84.18
50484;BME280;36409;52.168;20.878;2023-12-20T00:37:29;99631.15;;;5.07;84.19
50484;BME280;36409;52.168;20.878;2023-12-20T00:40:01;99636.32;;;5.07;84.10
50484;BME280;36409;52.168;20.878;2023-12-20T00:42:31;99627.72;;;5.07;84.09
50484;BME280;36409;52.168;20.878;2023-12-20T00:45:00;99625.98;;;5.07;84.33
50484;BME280;36409;52.168;20.878;2023-12-20T00:47:29;99621.67;;;5.08;84.35
50484;BME280;36409;52.168;20.878;2023-12-20T00:50:01;99619.09;;;5.08;84.30
50484;BME280;36409;52.168;20.878;2023-12-20T00:55:17;99614.77;;;5.08;84.54
50484;BME280;36409;52.168;20.878;2023-12-20T00:57:46;99609.59;;;5.08;84.60
50484;BME280;36409;52.168;20.878;2023-12-20T01:00:19;99607.88;;;5.09;84.61
50484;BME280;36409;52.168;20.878;2023-12-20T01:03:00;99611.31;;;5.09;84.69
50484;BME280;36409;52.168;20.878;2023-12-20T01:05:32;99603.55;;;5.09;84.28
50484;BME280;36409;52.168;20.878;2023-12-20T01:08:01;99611.31;;;5.09;84.47
50484;BME280;36409;52.168;20.878;2023-12-20T01:10:33;99607.00;;;5.08;84.63
50484;BME280;36409;52.168;20.878;2023-12-20T01:13:03;99602.70;;;5.09;84.46
50484;BME280;36409;52.168;20.878;2023-12-20T01:15:33;99611.31;;;5.09;84.38
50484;BME280;36409;52.168;20.878;2023-12-20T01:18:03;99615.62;;;5.10;84.61
50484;BME280;36409;52.168;20.878;2023-12-20T01:20:32;99605.30;;;5.09;84.32
50484;BME280;36409;52.168;20.878;2023-12-20T01:23:01;99600.97;;;5.09;84.50
50484;BME280;36409;52.168;20.878;2023-12-20T01:25:31;99604.43;;;5.10;84.21
50484;BME280;36409;52.168;20.878;2023-12-20T01:28:00;99599.24;;;5.08;84.52
50484;BME280;36409;52.168;20.878;2023-12-20T01:30:31;99592.36;;;5.09;84.74
50484;BME280;36409;52.168;20.878;2023-12-20T01:33:01;99594.93;;;5.10;85.10
50484;BME280;36409;52.168;20.878;2023-12-20T01:35:30;99593.20;;;5.09;84.58
50484;BME280;36409;52.168;20.878;2023-12-20T01:38:00;99578.55;;;5.08;84.46
50484;BME280;36409;52.168;20.878;2023-12-20T01:40:32;99585.46;;;5.08;84.40
50484;BME280;36409;52.168;20.878;2023-12-20T01:43:04;99586.30;;;5.08;84.65
50484;BME280;36409;52.168;20.878;2023-12-20T01:45:34;99583.73;;;5.07;84.67
50484;BME280;36409;52.168;20.878;2023-12-20T01:48:07;99583.73;;;5.07;84.80
50484;BME280;36409;52.168;20.878;2023-12-20T01:50:37;99582.89;;;5.06;84.64
50484;BME280;36409;52.168;20.878;2023-12-20T01:53:08;99580.30;;;5.06;84.77
50484;BME280;36409;52.168;20.878;2023-12-20T01:55:40;99582.89;;;5.06;84.38
50484;BME280;36409;52.168;20.878;2023-12-20T01:58:10;99573.39;;;5.07;84.65
50484;BME280;36409;52.168;20.878;2023-12-20T02:00:40;99571.67;;;5.06;84.74
50484;BME280;36409;52.168;20.878;2023-12-20T02:03:13;99567.36;;;5.05;84.29
50484;BME280;36409;52.168;20.878;2023-12-20T02:05:43;99568.23;;;5.05;84.83
50484;BME280;36409;52.168;20.878;2023-12-20T02:08:14;99559.59;;;5.05;84.62
50484;BME280;36409;52.168;20.878;2023-12-20T02:10:43;99556.14;;;5.06;84.82
50484;BME280;36409;52.168;20.878;2023-12-20T02:13:13;99560.47;;;5.05;84.96
50484;BME280;36409;52.168;20.878;2023-12-20T02:15:42;99552.72;;;5.05;85.01
50484;BME280;36409;52.168;20.878;2023-12-20T02:18:12;99555.30;;;5.05;84.75
50484;BME280;36409;52.168;20.878;2023-12-20T02:20:43;99559.59;;;5.05;84.65
50484;BME280;36409;52.168;20.878;2023-12-20T02:23:13;99555.30;;;5.05;84.87
50484;BME280;36409;52.168;20.878;2023-12-20T02:25:45;99553.58;;;5.04;84.83
50484;BME280;36409;52.168;20.878;2023-12-20T02:28:14;99555.30;;;5.05;84.89
50484;BME280;36409;52.168;20.878;2023-12-20T02:30:44;99534.61;;;5.05;84.62
50484;BME280;36409;52.168;20.878;2023-12-20T02:33:16;99536.31;;;5.05;84.80
50484;BME280;36409;52.168;20.878;2023-12-20T02:35:46;99540.62;;;5.06;84.74
50484;BME280;36409;52.168;20.878;2023-12-20T02:38:17;99539.78;;;5.05;85.05
50484;BME280;36409;52.168;20.878;2023-12-20T02:40:46;99536.33;;;5.06;84.60
50484;BME280;36409;52.168;20.878;2023-12-20T02:43:18;99530.28;;;5.06;85.16
50484;BME280;36409;52.168;20.878;2023-12-20T02:45:48;99535.43;;;5.07;85.26
50484;BME280;36409;52.168;20.878;2023-12-20T02:48:18;99539.77;;;5.07;85.21
50484;BME280;36409;52.168;20.878;2023-12-20T02:50:51;99534.56;;;5.08;85.11
50484;BME280;36409;52.168;20.878;2023-12-20T02:53:22;99528.53;;;5.09;84.78
50484;BME280;36409;52.168;20.878;2023-12-20T02:55:51;99528.53;;;5.09;85.14
50484;BME280;36409;52.168;20.878;2023-12-20T02:58:21;99535.42;;;5.10;84.78
50484;BME280;36409;52.168;20.878;2023-12-20T03:00:50;99527.66;;;5.10;84.91
50484;BME280;36409;52.168;20.878;2023-12-20T03:03:22;99531.99;;;5.10;84.93
50484;BME280;36409;52.168;20.878;2023-12-20T03:05:52;99527.66;;;5.10;85.02
50484;BME280;36409;52.168;20.878;2023-12-20T03:08:22;99526.81;;;5.08;84.77
50484;BME280;36409;52.168;20.878;2023-12-20T03:10:51;99522.51;;;5.09;85.00
50484;BME280;36409;52.168;20.878;2023-12-20T03:13:22;99513.87;;;5.08;85.33
50484;BME280;36409;52.168;20.878;2023-12-20T03:16:09;99513.87;;;5.08;84.81
50484;BME280;36409;52.168;20.878;2023-12-20T03:18:39;99514.75;;;5.09;84.91
50484;BME280;36409;52.168;20.878;2023-12-20T03:21:09;99525.09;;;5.09;85.08
50484;BME280;36409;52.168;20.878;2023-12-20T03:23:38;99521.63;;;5.08;85.62
50484;BME280;36409;52.168;20.878;2023-12-20T03:26:11;99519.92;;;5.09;85.22
50484;BME280;36409;52.168;20.878;2023-12-20T03:28:43;99516.47;;;5.10;85.06
50484;BME280;36409;52.168;20.878;2023-12-20T03:31:12;99516.47;;;5.10;84.97
50484;BME280;36409;52.168;20.878;2023-12-20T03:33:42;99508.71;;;5.10;85.03
50484;BME280;36409;52.168;20.878;2023-12-20T03:36:11;99511.30;;;5.10;85.08
50484;BME280;36409;52.168;20.878;2023-12-20T03:38:43;99505.26;;;5.11;85.25
50484;BME280;36409;52.168;20.878;2023-12-20T03:41:13;99506.13;;;5.10;84.97
50484;BME280;36409;52.168;20.878;2023-12-20T03:43:42;99503.52;;;5.08;85.20
50484;BME280;36409;52.168;20.878;2023-12-20T03:46:11;99498.35;;;5.08;85.02
50484;BME280;36409;52.168;20.878;2023-12-20T03:48:41;99498.37;;;5.07;85.12
50484;BME280;36409;52.168;20.878;2023-12-20T03:51:10;99504.41;;;5.09;85.20
50484;BME280;36409;52.168;20.878;2023-12-20T03:53:39;99510.42;;;5.09;85.15
50484;BME280;36409;52.168;20.878;2023-12-20T03:56:10;99505.25;;;5.09;85.28
50484;BME280;36409;52.168;20.878;2023-12-20T03:58:39;99502.66;;;5.09;84.71
50484;BME280;36409;52.168;20.878;2023-12-20T04:01:14;99495.78;;;5.10;85.02
50484;BME280;36409;52.168;20.878;2023-12-20T04:03:43;99490.59;;;5.08;85.90
50484;BME280;36409;52.168;20.878;2023-12-20T04:06:18;99501.81;;;5.09;84.86
50484;BME280;36409;52.168;20.878;2023-12-20T04:08:50;99506.98;;;5.09;85.07
50484;BME280;36409;52.168;20.878;2023-12-20T04:11:21;99499.23;;;5.09;85.24
50484;BME280;36409;52.168;20.878;2023-12-20T04:13:50;99494.92;;;5.08;85.27
50484;BME280;36409;52.168;20.878;2023-12-20T04:16:20;99501.81;;;5.09;85.44
50484;BME280;36409;52.168;20.878;2023-12-20T04:18:49;99504.41;;;5.09;85.22
50484;BME280;36409;52.168;20.878;2023-12-20T04:21:18;99503.53;;;5.10;85.25
50484;BME280;36409;52.168;20.878;2023-12-20T04:24:04;99500.08;;;5.09;85.15
50484;BME280;36409;52.168;20.878;2023-12-20T04:26:35;99507.84;;;5.09;85.39
50484;BME280;36409;52.168;20.878;2023-12-20T04:29:04;99503.52;;;5.08;85.52
50484;BME280;36409;52.168;20.878;2023-12-20T04:31:35;99502.66;;;5.09;85.49
50484;BME280;36409;52.168;20.878;2023-12-20T04:34:04;99498.36;;;5.10;85.50
50484;BME280;36409;52.168;20.878;2023-12-20T04:36:36;99499.20;;;5.10;85.52
50484;BME280;36409;52.168;20.878;2023-12-20T04:39:12;99508.69;;;5.12;85.73
50484;BME280;36409;52.168;20.878;2023-12-20T04:41:43;99507.84;;;5.11;85.47
50484;BME280;36409;52.168;20.878;2023-12-20T04:44:13;99502.67;;;5.11;85.68
50484;BME280;36409;52.168;20.878;2023-12-20T04:49:49;99500.95;;;5.10;85.20
50484;BME280;36409;52.168;20.878;2023-12-20T04:52:36;99501.80;;;5.10;84.95
50484;BME280;36409;52.168;20.878;2023-12-20T04:55:07;99501.80;;;5.10;85.35
50484;BME280;36409;52.168;20.878;2023-12-20T04:57:37;99496.63;;;5.12;85.37
50484;BME280;36409;52.168;20.878;2023-12-20T05:00:09;99494.89;;;5.13;85.49
50484;BME280;36409;52.168;20.878;2023-12-20T05:02:38;99494.89;;;5.13;85.66
50484;BME280;36409;52.168;20.878;2023-12-20T05:05:09;99488.84;;;5.14;84.97
50484;BME280;36409;52.168;20.878;2023-12-20T05:07:38;99493.16;;;5.15;85.68
50484;BME280;36409;52.168;20.878;2023-12-20T05:10:09;99492.28;;;5.14;85.25
50484;BME280;36409;52.168;20.878;2023-12-20T05:12:42;99484.52;;;5.14;85.33
50484;BME280;36409;52.168;20.878;2023-12-20T05:15:14;99477.64;;;5.15;85.55
50484;BME280;36409;52.168;20.878;2023-12-20T05:17:43;99480.21;;;5.13;85.71
50484;BME280;36409;52.168;20.878;2023-12-20T05:20:16;99479.37;;;5.13;85.31
50484;BME280;36409;52.168;20.878;2023-12-20T05:22:46;99481.95;;;5.13;85.99
50484;BME280;36409;52.168;20.878;2023-12-20T05:25:16;99484.56;;;5.11;85.46
50484;BME280;36409;52.168;20.878;2023-12-20T05:27:59;99481.09;;;5.10;86.01
50484;BME280;36409;52.168;20.878;2023-12-20T05:30:38;99479.38;;;5.09;85.61
50484;BME280;36409;52.168;20.878;2023-12-20T05:33:07;99478.53;;;5.09;85.70
50484;BME280;36409;52.168;20.878;2023-12-20T05:35:37;99480.24;;;5.08;85.28
50484;BME280;36409;52.168;20.878;2023-12-20T05:38:11;99476.83;;;5.06;85.51
50484;BME280;36409;52.168;20.878;2023-12-20T05:40:41;99476.83;;;5.06;85.30
50484;BME280;36409;52.168;20.878;2023-12-20T05:43:13;99482.87;;;5.05;85.26
50484;BME280;36409;52.168;20.878;2023-12-20T05:45:43;99475.98;;;5.04;85.38
50484;BME280;36409;52.168;20.878;2023-12-20T05:48:21;99481.15;;;5.04;85.43
50484;BME280;36409;52.168;20.878;2023-12-20T05:50:51;99478.55;;;5.03;85.77
50484;BME280;36409;52.168;20.878;2023-12-20T05:53:24;99477.70;;;5.02;85.57
50484;BME280;36409;52.168;20.878;2023-12-20T05:55:54;99484.59;;;5.02;85.39
50484;BME280;36409;52.168;20.878;2023-12-20T05:58:23;99475.98;;;5.01;85.73
50484;BME280;36409;52.168;20.878;2023-12-20T06:00:52;99467.37;;;5.01;85.65
50484;BME280;36409;52.168;20.878;2023-12-20T06:03:22;99472.55;;;4.99;85.47
50484;BME280;36409;52.168;20.878;2023-12-20T06:06:03;99463.92;;;4.97;85.49
50484;BME280;36409;52.168;20.878;2023-12-20T06:08:48;99465.67;;;4.97;85.72
50484;BME280;36409;52.168;20.878;2023-12-20T06:11:17;99470.84;;;4.97;85.52
50484;BME280;36409;52.168;20.878;2023-12-20T06:13:47;99477.74;;;4.94;85.84
50484;BME280;36409;52.168;20.878;2023-12-20T06:16:17;99479.48;;;4.94;85.17
50484;BME280;36409;52.168;20.878;2023-12-20T06:18:47;99468.27;;;4.93;85.55
50484;BME280;36409;52.168;20.878;2023-12-20T06:21:17;99483.78;;;4.93;85.62
50484;BME280;36409;52.168;20.878;2023-12-20T06:23:46;99473.45;;;4.92;85.75
50484;BME280;36409;52.168;20.878;2023-12-20T06:26:15;99471.71;;;4.92;85.47
50484;BME280;36409;52.168;20.878;2023-12-20T06:28:45;99467.41;;;4.91;85.96
50484;BME280;36409;52.168;20.878;2023-12-20T06:31:14;99482.08;;;4.91;85.67
50484;BME280;36409;52.168;20.878;2023-12-20T06:33:44;99471.73;;;4.91;85.47
50484;BME280;36409;52.168;20.878;2023-12-20T06:36:34;99479.49;;;4.91;85.82
50484;BME280;36409;52.168;20.878;2023-12-20T06:39:05;99479.49;;;4.91;85.67
50484;BME280;36409;52.168;20.878;2023-12-20T06:41:34;99469.15;;;4.91;85.94
50484;BME280;36409;52.168;20.878;2023-12-20T06:44:04;99476.91;;;4.91;85.74
50484;BME280;36409;52.168;20.878;2023-12-20T06:46:33;99474.32;;;4.91;86.01
50484;BME280;36409;52.168;20.878;2023-12-20T06:49:05;99481.22;;;4.92;85.99
50484;BME280;36409;52.168;20.878;2023-12-20T06:51:34;99477.75;;;4.91;85.59
50484;BME280;36409;52.168;20.878;2023-12-20T06:54:04;99476.88;;;4.92;85.98
50484;BME280;36409;52.168;20.878;2023-12-20T06:56:33;99468.27;;;4.93;85.36
50484;BME280;36409;52.168;20.878;2023-12-20T06:59:02;99476.89;;;4.94;85.81
50484;BME280;36409;52.168;20.878;2023-12-20T07:01:31;99476.03;;;4.95;85.75
50484;BME280;36409;52.168;20.878;2023-12-20T07:04:01;99482.91;;;4.98;85.76
50484;BME280;36409;52.168;20.878;2023-12-20T07:06:36;99475.14;;;4.98;85.76
50484;BME280;36409;52.168;20.878;2023-12-20T07:09:05;99481.16;;;4.98;85.77
50484;BME280;36409;52.168;20.878;2023-12-20T07:11:35;99482.03;;;4.97;85.84
50484;BME280;36409;52.168;20.878;2023-12-20T07:14:09;99482.89;;;4.99;86.02
50484;BME280;36409;52.168;20.878;2023-12-20T07:16:46;99480.30;;;4.99;85.60
50484;BME280;36409;52.168;20.878;2023-12-20T07:19:17;99479.44;;;5.00;85.66
50484;BME280;36409;52.168;20.878;2023-12-20T07:21:46;99488.07;;;5.01;86.12
50484;BME280;36409;52.168;20.878;2023-12-20T07:24:16;99492.34;;;5.02;85.85
50484;BME280;36409;52.168;20.878;2023-12-20T07:26:47;99491.48;;;5.03;85.87
50484;BME280;36409;52.168;20.878;2023-12-20T07:29:16;99487.19;;;5.03;85.98
50484;BME280;36409;52.168;20.878;2023-12-20T07:31:55;99487.19;;;5.03;85.75
50484;BME280;36409;52.168;20.878;2023-12-20T07:34:30;99481.15;;;5.04;85.85
50484;BME280;36409;52.168;20.878;2023-12-20T07:37:00;99482.86;;;5.04;85.84
50484;BME280;36409;52.168;20.878;2023-12-20T07:39:33;99485.45;;;5.05;85.95
50484;BME280;36409;52.168;20.878;2023-12-20T07:42:02;99483.72;;;5.06;85.88
50484;BME280;36409;52.168;20.878;2023-12-20T07:44:32;99484.58;;;5.05;85.88
50484;BME280;36409;52.168;20.878;2023-12-20T07:47:05;99481.15;;;5.04;85.76
50484;BME280;36409;52.168;20.878;2023-12-20T07:49:35;99482.87;;;5.05;86.04
50484;BME280;36409;52.168;20.878;2023-12-20T07:52:07;99484.58;;;5.05;85.89
50484;BME280;36409;52.168;20.878;2023-12-20T07:54:36;99486.32;;;5.04;85.89
50484;BME280;36409;52.168;20.878;2023-12-20T07:57:06;99477.70;;;5.05;85.69
50484;BME280;36409;52.168;20.878;2023-12-20T07:59:35;99480.28;;;5.05;86.11
50484;BME280;36409;52.168;20.878;2023-12-20T08:02:05;99482.87;;;5.05;85.67
50484;BME280;36409;52.168;20.878;2023-12-20T08:04:35;99486.32;;;5.04;85.91
50484;BME280;36409;52.168;20.878;2023-12-20T08:07:05;99486.30;;;5.06;85.96
50484;BME280;36409;52.168;20.878;2023-12-20T08:09:34;99484.58;;;5.05;85.80
50484;BME280;36409;52.168;20.878;2023-12-20T08:12:07;99481.99;;;5.05;85.88
50484;BME280;36409;52.168;20.878;2023-12-20T08:14:38;99480.27;;;5.04;85.82
50484;BME280;36409;52.168;20.878;2023-12-20T08:17:09;99471.65;;;5.05;85.85
50484;BME280;36409;52.168;20.878;2023-12-20T08:19:38;99473.37;;;5.06;86.00
50484;BME280;36409;52.168;20.878;2023-12-20T08:22:08;99474.24;;;5.06;85.85
50484;BME280;36409;52.168;20.878;2023-12-20T08:24:39;99475.94;;;5.07;86.03
50484;BME280;36409;52.168;20.878;2023-12-20T08:27:09;99477.66;;;5.08;86.03
50484;BME280;36409;52.168;20.878;2023-12-20T08:29:38;99478.53;;;5.09;85.78
50484;BME280;36409;52.168;20.878;2023-12-20T08:32:08;99475.08;;;5.10;86.05
50484;BME280;36409;52.168;20.878;2023-12-20T08:34:37;99474.20;;;5.09;85.93
50484;BME280;36409;52.168;20.878;2023-12-20T08:37:07;99469.05;;;5.08;86.00
50484;BME280;36409;52.168;20.878;2023-12-20T08:39:37;99470.77;;;5.09;85.96
50484;BME280;36409;52.168;20.878;2023-12-20T08:42:06;99471.61;;;5.09;85.97
50484;BME280;36409;52.168;20.878;2023-12-20T08:44:36;99473.34;;;5.10;86.24
50484;BME280;36409;52.168;20.878;2023-12-20T08:47:06;99471.61;;;5.09;86.18
50484;BME280;36409;52.168;20.878;2023-12-20T08:49:36;99475.92;;;5.10;86.29
50484;BME280;36409;52.168;20.878;2023-12-20T08:52:06;99474.22;;;5.11;86.16
50484;BME280;36409;52.168;20.878;2023-12-20T08:54:38;99475.06;;;5.12;85.90
50484;BME280;36409;52.168;20.878;2023-12-20T08:57:13;99471.62;;;5.11;86.23
50484;BME280;36409;52.168;20.878;2023-12-20T08:59:42;99476.78;;;5.13;86.09
50484;BME280;36409;52.168;20.878;2023-12-20T09:02:12;99473.33;;;5.14;86.06
50484;BME280;36409;52.168;20.878;2023-12-20T09:04:41;99469.02;;;5.13;86.10
50484;BME280;36409;52.168;20.878;2023-12-20T09:07:22;99463.82;;;5.14;86.12
50484;BME280;36409;52.168;20.878;2023-12-20T09:09:51;99460.37;;;5.15;85.85
50484;BME280;36409;52.168;20.878;2023-12-20T09:12:21;99460.37;;;5.17;85.96
50484;BME280;36409;52.168;20.878;2023-12-20T09:14:52;99464.69;;;5.18;86.14
50484;BME280;36409;52.168;20.878;2023-12-20T09:17:21;99452.59;;;5.18;85.86
50484;BME280;36409;52.168;20.878;2023-12-20T09:19:52;99447.42;;;5.18;85.92
50484;BME280;36409;52.168;20.878;2023-12-20T09:22:23;99446.56;;;5.16;86.27
50484;BME280;36409;52.168;20.878;2023-12-20T09:24:52;99445.72;;;5.16;86.08
50484;BME280;36409;52.168;20.878;2023-12-20T09:27:22;99444.86;;;5.17;85.99
50484;BME280;36409;52.168;20.878;2023-12-20T09:29:52;99443.99;;;5.18;86.21
50484;BME280;36409;52.168;20.878;2023-12-20T09:32:22;99429.31;;;5.18;86.05
50484;BME280;36409;52.168;20.878;2023-12-20T09:34:51;99430.16;;;5.19;85.97
50484;BME280;36409;52.168;20.878;2023-12-20T09:37:21;99426.70;;;5.20;85.87
50484;BME280;36409;52.168;20.878;2023-12-20T09:39:51;99430.16;;;5.20;86.20
50484;BME280;36409;52.168;20.878;2023-12-20T09:42:24;99433.59;;;5.21;86.06
50484;BME280;36409;52.168;20.878;2023-12-20T09:45:02;99433.61;;;5.22;86.14
50484;BME280;36409;52.168;20.878;2023-12-20T09:47:33;99424.13;;;5.21;86.11
50484;BME280;36409;52.168;20.878;2023-12-20T09:50:03;99422.38;;;5.22;85.96
50484;BME280;36409;52.168;20.878;2023-12-20T09:52:34;99420.65;;;5.24;86.14
50484;BME280;36409;52.168;20.878;2023-12-20T09:55:06;99416.33;;;5.26;86.20
50484;BME280;36409;52.168;20.878;2023-12-20T09:57:36;99416.30;;;5.28;86.25
50484;BME280;36409;52.168;20.878;2023-12-20T10:00:08;99411.13;;;5.29;85.79
50484;BME280;36409;52.168;20.878;2023-12-20T10:02:48;99418.05;;;5.27;85.98
50484;BME280;36409;52.168;20.878;2023-12-20T10:05:19;99405.11;;;5.27;86.17
50484;BME280;36409;52.168;20.878;2023-12-20T10:07:54;99419.76;;;5.26;86.09
50484;BME280;36409;52.168;20.878;2023-12-20T10:10:27;99413.73;;;5.26;86.30
50484;BME280;36409;52.168;20.878;2023-12-20T10:13:11;99415.45;;;5.27;86.29
50484;BME280;36409;52.168;20.878;2023-12-20T10:15:42;99413.72;;;5.28;86.22
50484;BME280;36409;52.168;20.878;2023-12-20T10:18:12;99404.23;;;5.28;86.00
50484;BME280;36409;52.168;20.878;2023-12-20T10:20:43;99411.12;;;5.28;85.75
50484;BME280;36409;52.168;20.878;2023-12-20T10:23:16;99405.95;;;5.28;85.99
50484;BME280;36409;52.168;20.878;2023-12-20T10:25:56;99410.26;;;5.29;86.27
50484;BME280;36409;52.168;20.878;2023-12-20T10:28:28;99396.47;;;5.28;86.26
50484;BME280;36409;52.168;20.878;2023-12-20T10:31:03;99399.06;;;5.28;86.20
50484;BME280;36409;52.168;20.878;2023-12-20T10:33:33;99395.61;;;5.29;86.33
50484;BME280;36409;52.168;20.878;2023-12-20T10:36:11;99387.84;;;5.29;86.14
50484;BME280;36409;52.168;20.878;2023-12-20T10:38:43;99386.10;;;5.30;85.81
50484;BME280;36409;52.168;20.878;2023-12-20T10:41:15;99390.41;;;5.31;86.32
50484;BME280;36409;52.168;20.878;2023-12-20T10:43:46;99380.92;;;5.30;86.32
50484;BME280;36409;52.168;20.878;2023-12-20T10:46:16;99388.72;;;5.28;86.24
50484;BME280;36409;52.168;20.878;2023-12-20T10:48:49;99398.20;;;5.29;86.12
50484;BME280;36409;52.168;20.878;2023-12-20T10:51:21;99390.38;;;5.32;86.18
50484;BME280;36409;52.168;20.878;2023-12-20T10:53:52;99383.45;;;5.36;86.29
50484;BME280;36409;52.168;20.878;2023-12-20T10:56:22;99386.04;;;5.37;86.20
50484;BME280;36409;52.168;20.878;2023-12-20T10:58:52;99380.00;;;5.38;86.11
50484;BME280;36409;52.168;20.878;2023-12-20T11:01:28;99377.41;;;5.38;86.04
50484;BME280;36409;52.168;20.878;2023-12-20T11:03:59;99370.52;;;5.37;86.32
50484;BME280;36409;52.168;20.878;2023-12-20T11:06:39;99367.92;;;5.37;86.13
50484;BME280;36409;52.168;20.878;2023-12-20T11:09:20;99366.18;;;5.38;86.21
50484;BME280;36409;52.168;20.878;2023-12-20T11:12:13;99358.42;;;5.38;86.36
50484;BME280;36409;52.168;20.878;2023-12-20T11:14:47;99356.68;;;5.40;86.16
50484;BME280;36409;52.168;20.878;2023-12-20T11:17:17;99347.20;;;5.39;86.15
50484;BME280;36409;52.168;20.878;2023-12-20T11:20:11;99344.61;;;5.39;86.22
50484;BME280;36409;52.168;20.878;2023-12-20T11:25:23;99340.33;;;5.36;86.42
50484;BME280;36409;52.168;20.878;2023-12-20T11:28:12;99333.41;;;5.37;86.27
50484;BME280;36409;52.168;20.878;2023-12-20T11:31:04;99341.17;;;5.38;86.60
50484;BME280;36409;52.168;20.878;2023-12-20T11:33:37;99337.72;;;5.39;86.36
50484;BME280;36409;52.168;20.878;2023-12-20T11:36:14;99334.23;;;5.40;86.08
50484;BME280;36409;52.168;20.878;2023-12-20T11:38:54;99335.11;;;5.41;86.31
50484;BME280;36409;52.168;20.878;2023-12-20T11:41:26;99328.19;;;5.41;86.52
50484;BME280;36409;52.168;20.878;2023-12-20T11:43:56;99323.88;;;5.42;86.19
50484;BME280;36409;52.168;20.878;2023-12-20T11:46:26;99329.91;;;5.43;86.20
50484;BME280;36409;52.168;20.878;2023-12-20T11:48:55;99326.47;;;5.42;86.04
50484;BME280;36409;52.168;20.878;2023-12-20T11:51:28;99329.91;;;5.43;86.33
50484;BME280;36409;52.168;20.878;2023-12-20T11:53:58;99317.01;;;5.38;86.32
50484;BME280;36409;52.168;20.878;2023-12-20T11:56:27;99318.75;;;5.37;86.84
50484;BME280;36409;52.168;20.878;2023-12-20T11:58:59;99313.59;;;5.34;86.13
50484;BME280;36409;52.168;20.878;2023-12-20T12:01:51;99311.91;;;5.32;86.19
50484;BME280;36409;52.168;20.878;2023-12-20T12:04:20;99315.36;;;5.31;86.20
50484;BME280;36409;52.168;20.878;2023-12-20T12:06:53;99308.50;;;5.28;86.21
50484;BME280;36409;52.168;20.878;2023-12-20T12:09:22;99318.84;;;5.28;86.14
50484;BME280;36409;52.168;20.878;2023-12-20T12:11:51;99311.08;;;5.26;85.95
50484;BME280;36409;52.168;20.878;2023-12-20T12:14:24;99313.69;;;5.25;86.43
50484;BME280;36409;52.168;20.878;2023-12-20T12:16:54;99302.47;;;5.24;86.07
50484;BME280;36409;52.168;20.878;2023-12-20T12:19:24;99309.41;;;5.22;86.27
50484;BME280;36409;52.168;20.878;2023-12-20T12:22:05;99304.23;;;5.21;86.23
50484;BME280;36409;52.168;20.878;2023-12-20T12:24:35;99299.92;;;5.20;86.05
50484;BME280;36409;52.168;20.878;2023-12-20T12:27:06;99304.26;;;5.19;86.37
50484;BME280;36409;52.168;20.878;2023-12-20T12:29:36;99297.36;;;5.18;86.32
50484;BME280;36409;52.168;20.878;2023-12-20T12:32:09;99296.54;;;5.15;86.34
50484;BME280;36409;52.168;20.878;2023-12-20T12:34:40;99294.84;;;5.12;86.29
50484;BME280;36409;52.168;20.878;2023-12-20T12:37:09;99287.11;;;5.09;86.09
50484;BME280;36409;52.168;20.878;2023-12-20T12:39:38;99288.00;;;5.06;86.20
50484;BME280;36409;52.168;20.878;2023-12-20T12:42:07;99289.71;;;5.06;86.35
50484;BME280;36409;52.168;20.878;2023-12-20T12:44:36;99282.84;;;5.03;85.95
50484;BME280;36409;52.168;20.878;2023-12-20T12:47:08;99291.47;;;5.02;85.84
50484;BME280;36409;52.168;20.878;2023-12-20T12:49:37;99290.63;;;5.00;85.97
50484;BME280;36409;52.168;20.878;2023-12-20T12:52:08;99281.14;;;4.99;86.12
50484;BME280;36409;52.168;20.878;2023-12-20T12:54:37;99288.05;;;4.97;86.22
50484;BME280;36409;52.168;20.878;2023-12-20T12:57:06;99288.08;;;4.95;86.22
50484;BME280;36409;52.168;20.878;2023-12-20T12:59:59;99279.47;;;4.95;85.84
50484;BME280;36409;52.168;20.878;2023-12-20T13:02:33;99285.51;;;4.92;85.91
50484;BME280;36409;52.168;20.878;2023-12-20T13:05:02;99287.25;;;4.92;86.16
50484;BME280;36409;52.168;20.878;2023-12-20T13:07:33;99280.39;;;4.89;85.80
50484;BME280;36409;52.168;20.878;2023-12-20T13:10:06;99274.36;;;4.87;85.94
50484;BME280;36409;52.168;20.878;2023-12-20T13:12:35;99272.64;;;4.86;86.18
50484;BME280;36409;52.168;20.878;2023-12-20T13:15:06;99272.66;;;4.83;85.88
50484;BME280;36409;52.168;20.878;2023-12-20T13:17:35;99289.05;;;4.84;86.27
50484;BME280;36409;52.168;20.878;2023-12-20T13:20:06;99279.58;;;4.83;86.10
50484;BME280;36409;52.168;20.878;2023-12-20T13:22:35;99283.00;;;4.83;86.07
50484;BME280;36409;52.168;20.878;2023-12-20T13:25:05;99275.27;;;4.82;86.30
50484;BME280;36409;52.168;20.878;2023-12-20T13:27:34;99270.09;;;4.82;86.17
50484;BME280;36409;52.168;20.878;2023-12-20T13:30:05;99269.23;;;4.83;85.92
50484;BME280;36409;52.168;20.878;2023-12-20T13:32:36;99269.20;;;4.84;86.19